Time;durP1;ratioP1;P1;durP2;ratioP2;P2;SDS_P1;SDS_P2;PMS_P1;PMS_P2;Temp;Humidity;BMP_temperature;BMP_pressure;BME280_temperature;BME280_humidity;BME280_pressure;Samples;Min_cycle;Max_cycle;Signal;HPM_P1;HPM_P2
2022/03/25 00:00:15;;;;;;;14.55;11.33;;;;;;;13.60;27.30;94704.37;744215;77;26297;-73
2022/03/25 00:01:23;;;;;;;14.60;11.97;;;;;;;13.60;27.38;94707.80;738167;79;26276;-74
2022/03/25 00:02:39;;;;;;;15.30;11.20;;;;;;;13.60;27.42;94697.26;740742;78;26386;-73
2022/03/25 00:03:47;;;;;;;13.70;11.20;;;;;;;13.59;27.42;94694.92;741716;77;26778;-76
2022/03/25 00:04:55;;;;;;;16.17;11.20;;;;;;;13.59;27.42;94690.41;741707;78;26310;-72
2022/03/25 00:06:04;;;;;;;13.90;11.08;;;;;;;13.59;27.44;94690.96;738832;78;26385;-72
2022/03/25 00:07:09;;;;;;;15.98;11.40;;;;;;;13.58;27.42;94687.55;737450;77;27079;-72
2022/03/25 00:09:56;;;;;;;14.65;10.90;;;;;;;13.57;27.55;94685.98;707511;82;26290;-72
2022/03/25 00:11:11;;;;;;;13.90;11.30;;;;;;;13.55;27.56;94681.55;754102;76;26283;-72
2022/03/25 00:12:19;;;;;;;12.58;11.25;;;;;;;13.55;27.63;94682.09;760242;76;26325;-72
2022/03/25 00:13:26;;;;;;;14.70;11.53;;;;;;;13.52;27.62;94680.81;747967;77;26312;-73
2022/03/25 00:14:32;;;;;;;13.43;11.22;;;;;;;13.52;27.66;94679.50;752714;77;26233;-72
2022/03/25 00:15:36;;;;;;;16.15;11.18;;;;;;;13.51;27.65;94674.55;758888;76;26258;-73
2022/03/25 00:16:40;;;;;;;15.55;11.30;;;;;;;13.50;27.60;94673.75;747624;77;26267;-71
2022/03/25 00:17:51;;;;;;;14.35;11.73;;;;;;;13.47;27.62;94675.69;753046;73;26268;-74
2022/03/25 00:18:55;;;;;;;13.45;10.82;;;;;;;13.49;27.61;94675.39;754140;77;26291;-72
2022/03/25 00:20:03;;;;;;;11.95;10.60;;;;;;;13.46;27.63;94671.48;752174;77;26337;-73
2022/03/25 00:21:11;;;;;;;13.25;11.38;;;;;;;13.47;27.62;94671.73;752348;77;26878;-72
2022/03/25 00:22:20;;;;;;;13.48;11.10;;;;;;;13.45;27.56;94665.98;753748;77;26264;-74
2022/03/25 00:23:25;;;;;;;15.50;10.95;;;;;;;13.43;27.61;94666.83;749878;78;26256;-73
2022/03/25 00:24:34;;;;;;;13.60;10.82;;;;;;;13.42;27.67;94663.94;746125;77;26342;-74
2022/03/25 00:25:48;;;;;;;;;;;;;;;;;;;;;
2022/03/25 00:27:03;;;;;;;16.73;11.05;;;;;;;13.42;27.71;94657.34;750127;77;26268;-72
2022/03/25 00:33:06;;;;;;;13.32;11.03;;;;;;;13.34;27.79;94663.34;782279;74;26657;-74
2022/03/25 00:34:15;;;;;;;15.25;10.90;;;;;;;13.33;27.83;94664.44;767570;74;26320;-73
2022/03/25 00:35:24;;;;;;;14.90;10.70;;;;;;;13.32;27.86;94666.81;780920;74;26377;-73
2022/03/25 00:36:28;;;;;;;13.53;10.75;;;;;;;13.30;27.82;94664.50;779196;75;26691;-74
2022/03/25 00:37:34;;;;;;;14.30;10.98;;;;;;;13.31;27.92;94666.05;775730;75;26253;-73
2022/03/25 00:38:40;;;;;;;12.15;10.20;;;;;;;13.30;27.95;94663.19;788272;74;26213;-72
2022/03/25 00:39:46;;;;;;;12.68;10.95;;;;;;;13.30;27.89;94659.75;772054;75;26371;-72
2022/03/25 00:40:54;;;;;;;15.28;11.28;;;;;;;13.30;27.98;94659.23;782966;74;26334;-72
2022/03/25 00:42:03;;;;;;;11.05;9.93;;;;;;;13.30;28.04;94661.87;783354;75;26246;-73
2022/03/25 00:43:09;;;;;;;12.60;10.70;;;;;;;13.31;28.06;94662.64;774757;75;26316;-74
2022/03/25 00:44:18;;;;;;;12.23;10.93;;;;;;;13.31;28.10;94653.41;777095;75;26244;-73
2022/03/25 00:45:28;;;;;;;12.37;10.50;;;;;;;13.31;28.05;94656.82;781975;75;26360;-73
2022/03/25 00:46:32;;;;;;;12.80;10.40;;;;;;;13.28;28.01;94653.45;776414;74;26246;-73
2022/03/25 00:47:36;;;;;;;12.88;10.38;;;;;;;13.28;28.06;94655.29;774038;75;26370;-73
2022/03/25 00:48:46;;;;;;;14.05;10.80;;;;;;;13.29;27.95;94651.08;774588;76;26242;-73
2022/03/25 00:49:58;;;;;;;12.47;9.95;;;;;;;13.26;27.94;94651.66;772039;75;26247;-72
2022/03/25 00:51:02;;;;;;;14.13;10.63;;;;;;;13.26;27.84;94648.23;771604;76;26344;-72
2022/03/25 00:52:13;;;;;;;13.00;9.60;;;;;;;13.24;27.75;94647.23;773254;77;26738;-74
2022/03/25 00:53:17;;;;;;;11.75;10.32;;;;;;;13.23;27.74;94646.42;773873;76;26258;-73
2022/03/25 00:54:21;;;;;;;13.53;10.13;;;;;;;13.23;27.65;94647.75;773838;76;26231;-73
2022/03/25 00:55:29;;;;;;;12.10;10.70;;;;;;;13.23;27.56;94641.16;786095;74;26213;-73
2022/03/25 00:56:38;;;;;;;11.30;10.05;;;;;;;13.26;27.55;94637.16;783243;74;26257;-75
2022/03/25 00:57:43;;;;;;;13.30;10.43;;;;;;;13.26;27.59;94635.84;784705;74;26312;-72
2022/03/25 00:58:52;;;;;;;12.13;10.23;;;;;;;13.27;27.56;94636.62;766220;76;26306;-72
2022/03/25 00:59:56;;;;;;;14.68;11.00;;;;;;;13.26;27.43;94631.09;776007;76;26265;-73
2022/03/25 01:01:01;;;;;;;12.60;10.80;;;;;;;13.26;27.47;94635.84;790499;75;26217;-73
2022/03/25 01:02:06;;;;;;;12.55;10.05;;;;;;;13.25;27.39;94634.83;771191;75;26243;-74
2022/03/25 01:03:12;;;;;;;15.25;10.38;;;;;;;13.26;27.44;94639.80;766414;76;26265;-74
2022/03/25 01:04:20;;;;;;;11.78;10.30;;;;;;;13.26;27.42;94637.69;770039;76;26459;-73
2022/03/25 01:05:26;;;;;;;14.07;10.32;;;;;;;13.26;27.43;94635.84;762891;77;26253;-73
2022/03/25 01:06:34;;;;;;;11.43;9.38;;;;;;;13.27;27.44;94635.30;767266;76;26337;-72
2022/03/25 01:07:38;;;;;;;13.05;10.08;;;;;;;13.28;27.42;94633.69;772046;76;26256;-72
2022/03/25 01:08:49;;;;;;;11.57;10.20;;;;;;;13.26;27.37;94632.41;759496;77;26228;-73
2022/03/25 01:09:54;;;;;;;12.43;10.00;;;;;;;13.27;27.44;94629.48;764869;75;26319;-73
2022/03/25 01:11:04;;;;;;;15.40;10.78;;;;;;;13.26;27.49;94631.89;771037;76;27620;-72
2022/03/25 01:12:12;;;;;;;12.85;10.28;;;;;;;13.27;27.53;94628.17;765649;75;26245;-72
2022/03/25 01:13:21;;;;;;;12.07;10.10;;;;;;;13.27;27.52;94627.40;779681;75;26609;-73
2022/03/25 01:14:27;;;;;;;11.75;10.55;;;;;;;13.26;27.42;94628.46;785626;74;26675;-71
2022/03/25 01:18:06;;;;;;;13.28;9.95;;;;;;;13.25;27.45;94627.69;781337;74;26679;-72
2022/03/25 01:19:12;;;;;;;11.90;10.48;;;;;;;13.20;27.54;94632.55;761100;77;27402;-72
2022/03/25 01:20:21;;;;;;;12.15;10.08;;;;;;;13.19;27.47;94631.53;758047;76;26306;-73
2022/03/25 01:21:23;;;;;;;12.20;9.38;;;;;;;13.19;27.55;94623.62;750795;77;26831;-74
2022/03/25 01:22:28;;;;;;;10.20;9.20;;;;;;;13.21;27.50;94629.37;746424;78;26698;-75
2022/03/25 01:23:33;;;;;;;11.12;10.03;;;;;;;13.20;27.50;94631.78;750745;77;26320;-72
2022/03/25 01:24:41;;;;;;;12.25;9.28;;;;;;;13.20;27.48;94625.97;749363;78;26300;-72
2022/03/25 01:25:50;;;;;;;11.93;9.75;;;;;;;13.22;27.50;94634.89;760210;77;26795;-72
2022/03/25 01:26:54;;;;;;;12.60;9.98;;;;;;;13.21;27.43;94629.37;751437;78;26682;-73
2022/03/25 01:28:00;;;;;;;11.97;9.45;;;;;;;13.21;27.46;94629.37;746280;78;26369;-73
2022/03/25 01:29:12;;;;;;;16.60;10.08;;;;;;;13.21;27.43;94627.50;747086;78;27448;-73
2022/03/25 01:30:16;;;;;;;12.10;9.90;;;;;;;13.22;27.49;94630.39;750046;77;26395;-72
2022/03/25 01:31:21;;;;;;;12.03;9.23;;;;;;;13.22;27.49;94628.30;742182;78;26351;-72
2022/03/25 01:32:27;;;;;;;11.83;9.73;;;;;;;13.22;27.58;94633.58;749166;77;26278;-73
2022/03/25 01:33:33;;;;;;;12.93;10.00;;;;;;;13.22;27.45;94627.76;742944;78;26275;-74
2022/03/25 01:34:38;;;;;;;12.37;10.40;;;;;;;13.23;27.38;94624.58;752954;76;26314;-73
2022/03/25 01:35:47;;;;;;;10.93;9.78;;;;;;;13.22;27.52;94629.08;756903;77;26268;-73
2022/03/25 01:36:55;;;;;;;11.93;10.23;;;;;;;13.22;27.56;94624.35;751834;78;26345;-73
2022/03/25 01:38:01;;;;;;;15.10;10.35;;;;;;;13.21;27.54;94623.55;743890;78;26275;-73
2022/03/25 01:39:10;;;;;;;11.93;9.55;;;;;;;13.20;27.51;94625.97;751614;77;26327;-74
2022/03/25 01:40:20;;;;;;;12.20;10.60;;;;;;;13.21;27.59;94627.50;750280;77;26348;-72
2022/03/25 01:41:29;;;;;;;10.20;9.18;;;;;;;13.22;27.62;94630.39;752450;77;26436;-73
2022/03/25 01:42:36;;;;;;;11.43;10.15;;;;;;;13.22;27.46;94624.35;757479;76;26715;-73
2022/03/25 01:43:41;;;;;;;12.73;9.80;;;;;;;13.23;27.37;94635.12;761535;76;26262;-72
2022/03/25 01:44:46;;;;;;;17.55;10.50;;;;;;;13.23;27.44;94627.21;743376;78;26287;-72
2022/03/25 01:45:50;;;;;;;10.70;9.60;;;;;;;13.23;27.44;94630.62;752228;77;26778;-73
2022/03/25 01:50:42;;;;;;;11.30;9.30;;;;;;;13.21;27.50;94630.69;781330;74;26752;-73
2022/03/25 01:51:51;;;;;;;11.35;10.25;;;;;;;13.18;27.58;94633.39;772895;74;26362;-72
2022/03/25 01:53:00;;;;;;;12.65;9.68;;;;;;;13.19;27.72;94642.06;768366;75;26306;-73
2022/03/25 01:54:23;;;;;;;11.33;10.00;;;;;;;13.18;27.79;94644.48;781427;74;26290;-72
2022/03/25 01:55:32;;;;;;;12.05;9.95;;;;;;;13.18;27.87;94652.38;791893;74;26313;-71
2022/03/25 01:56:41;;;;;;;12.68;10.32;;;;;;;13.14;27.90;94646.92;793262;74;26672;-72
2022/03/25 01:57:49;;;;;;;11.20;9.95;;;;;;;13.13;27.98;94655.12;792963;74;26297;-74
2022/03/25 01:58:54;;;;;;;11.50;9.95;;;;;;;13.12;28.04;94649.08;778465;74;26256;-73
2022/03/25 02:00:02;;;;;;;12.55;10.40;;;;;;;13.12;28.12;94652.23;780419;74;26919;-73
2022/03/25 02:01:10;;;;;;;12.40;10.32;;;;;;;13.10;28.29;94649.12;768207;76;26330;-72
2022/03/25 02:05:58;;;;;;;11.30;10.10;;;;;;;13.03;28.41;94649.55;752679;77;26229;-72
2022/03/25 02:07:04;;;;;;;13.75;10.25;;;;;;;13.00;28.58;94648.84;775224;74;26357;-73
2022/03/25 02:08:10;;;;;;;12.73;9.93;;;;;;;12.98;28.56;94648.36;755047;77;26279;-72
2022/03/25 02:09:15;;;;;;;13.60;10.70;;;;;;;12.96;28.57;94647.88;775311;75;26261;-74
2022/03/25 02:10:20;;;;;;;12.85;10.20;;;;;;;12.95;28.48;94647.08;769259;75;26318;-76
2022/03/25 02:11:30;;;;;;;13.13;10.38;;;;;;;12.92;28.53;94645.60;764839;74;26254;-72
2022/03/25 02:12:38;;;;;;;11.73;10.53;;;;;;;12.91;28.56;94645.34;757296;77;26709;-74
2022/03/25 02:13:43;;;;;;;11.65;9.95;;;;;;;12.90;28.60;94641.17;770233;76;26650;-72
2022/03/25 02:14:52;;;;;;;12.68;10.10;;;;;;;12.88;28.57;94647.27;768879;75;26254;-71
2022/03/25 02:16:01;;;;;;;12.93;10.35;;;;;;;12.86;28.62;94640.98;770168;76;26781;-72
2022/03/25 02:18:56;;;;;;;11.18;9.88;;;;;;;12.83;28.62;94643.68;772280;75;26260;-72
2022/03/25 02:20:07;;;;;;;13.68;10.05;;;;;;;12.79;28.70;94637.97;773031;74;26703;-74
2022/03/25 02:21:09;;;;;;;13.30;10.68;;;;;;;12.78;28.68;94635.87;779885;75;26263;-73
2022/03/25 02:22:14;;;;;;;13.83;10.60;;;;;;;12.77;28.67;94637.48;782680;73;26244;-75
2022/03/25 02:23:18;;;;;;;10.90;9.53;;;;;;;12.75;28.62;94635.17;790499;75;26297;-72
2022/03/25 02:24:22;;;;;;;13.00;10.32;;;;;;;12.73;28.57;94639.16;792824;74;26258;-74
2022/03/25 02:25:31;;;;;;;13.48;10.68;;;;;;;12.72;28.72;94633.12;769724;76;26250;-72
2022/03/25 02:26:39;;;;;;;12.05;10.50;;;;;;;12.72;28.69;94636.30;768841;76;26734;-74
2022/03/25 02:27:48;;;;;;;12.23;10.13;;;;;;;12.71;28.75;94636.84;775872;76;26695;-73
2022/03/25 02:28:54;;;;;;;11.60;10.28;;;;;;;12.71;28.77;94635.52;765396;76;26754;-72
2022/03/25 02:29:58;;;;;;;12.65;10.10;;;;;;;12.70;28.88;94633.95;763208;75;26737;-73
2022/03/25 02:31:02;;;;;;;14.50;11.00;;;;;;;12.70;28.92;94626.60;765961;75;26277;-71
2022/03/25 02:32:12;;;;;;;10.50;9.40;;;;;;;12.69;28.91;94627.66;764443;76;26729;-74
2022/03/25 02:33:19;;;;;;;11.45;10.10;;;;;;;12.68;28.96;94628.20;773121;75;26239;-73
2022/03/25 02:34:27;;;;;;;12.98;10.68;;;;;;;12.67;28.89;94625.86;778850;76;26715;-72
2022/03/25 02:35:43;;;;;;;13.22;10.00;;;;;;;12.65;28.87;94627.47;768574;76;26254;-72
2022/03/25 02:37:25;;;;;;;11.88;9.55;;;;;;;12.63;28.82;94625.16;784876;75;26271;-72
2022/03/25 02:38:32;;;;;;;15.78;11.05;;;;;;;12.62;28.81;94626.22;773245;73;26719;-72
2022/03/25 02:39:37;;;;;;;16.75;10.30;;;;;;;12.59;28.86;94617.61;774319;75;26665;-72
2022/03/25 02:40:46;;;;;;;11.35;10.13;;;;;;;12.59;28.86;94616.30;780601;74;26317;-72
2022/03/25 02:41:52;;;;;;;14.18;10.85;;;;;;;12.58;28.78;94618.67;784826;75;26723;-71
2022/03/25 02:43:01;;;;;;;12.23;10.40;;;;;;;12.57;28.85;94618.96;774164;74;26365;-72
2022/03/25 02:44:11;;;;;;;12.00;9.88;;;;;;;12.56;28.85;94616.88;782283;73;26310;-72
2022/03/25 02:45:18;;;;;;;11.70;10.45;;;;;;;12.54;28.89;94616.39;773797;74;26313;-71
2022/03/25 02:46:26;;;;;;;12.40;10.65;;;;;;;12.56;28.79;94618.73;768433;76;26337;-74
2022/03/25 02:47:30;;;;;;;14.93;10.32;;;;;;;12.53;28.78;94621.95;773991;74;26310;-72
2022/03/25 02:48:39;;;;;;;14.80;10.55;;;;;;;12.53;28.75;94618.80;775102;74;26213;-72
2022/03/25 02:57:07;;;;;;;13.30;9.83;;;;;;;12.48;28.55;94615.49;740809;77;26638;-72
2022/03/25 02:58:13;;;;;;;11.48;10.10;;;;;;;12.48;28.61;94615.49;755063;77;26315;-73
2022/03/25 02:59:18;;;;;;;13.75;10.65;;;;;;;12.49;28.58;94615.72;751997;77;26314;-73
2022/03/25 03:00:25;;;;;;;11.33;9.93;;;;;;;12.50;28.59;94613.34;749683;78;26259;-72
2022/03/25 03:01:34;;;;;;;12.60;9.95;;;;;;;12.52;28.53;94615.14;743406;77;26699;-74
2022/03/25 03:02:44;;;;;;;13.78;10.78;;;;;;;12.52;28.44;94619.86;753763;78;26252;-73
2022/03/25 03:03:49;;;;;;;11.80;10.55;;;;;;;12.53;28.47;94616.68;765339;77;26687;-73
2022/03/25 03:04:59;;;;;;;12.73;10.53;;;;;;;12.54;28.53;94618.25;757708;76;26781;-73
2022/03/25 03:06:07;;;;;;;14.93;10.75;;;;;;;12.54;28.61;94622.20;734608;78;26286;-73
2022/03/25 03:07:13;;;;;;;12.05;10.70;;;;;;;12.54;28.59;94617.70;760138;77;26242;-72
2022/03/25 03:08:20;;;;;;;13.83;10.58;;;;;;;12.55;28.58;94620.59;741832;77;26797;-72
2022/03/25 03:09:24;;;;;;;12.45;9.83;;;;;;;12.55;28.56;94615.33;741532;78;26703;-72
2022/03/25 03:10:33;;;;;;;12.55;10.43;;;;;;;12.56;28.56;94618.73;756275;76;26262;-72
2022/03/25 03:11:43;;;;;;;11.40;9.90;;;;;;;12.56;28.55;94623.45;761870;77;26298;-72
2022/03/25 03:12:47;;;;;;;13.53;10.95;;;;;;;12.56;28.70;94620.83;751075;77;26270;-73
2022/03/25 03:13:56;;;;;;;17.23;11.00;;;;;;;12.57;28.74;94621.08;748806;78;26258;-73
2022/03/25 03:15:04;;;;;;;12.05;10.15;;;;;;;12.56;28.70;94617.42;748539;77;26336;-73
2022/03/25 03:16:13;;;;;;;12.37;10.63;;;;;;;12.57;28.76;94617.13;761308;78;26232;-72
2022/03/25 03:17:20;;;;;;;12.40;10.05;;;;;;;12.56;28.73;94620.83;764932;76;26242;-73
2022/03/25 03:18:26;;;;;;;13.83;10.18;;;;;;;12.55;28.84;94617.16;739041;77;26270;-72
2022/03/25 03:19:31;;;;;;;12.18;10.05;;;;;;;12.55;28.81;94620.59;762106;78;26252;-72
2022/03/25 03:20:41;;;;;;;12.75;10.75;;;;;;;12.52;28.80;94619.86;763075;77;26271;-73
2022/03/25 03:21:45;;;;;;;12.23;10.72;;;;;;;12.52;28.82;94619.09;754450;76;26265;-72
2022/03/25 03:22:55;;;;;;;13.93;11.03;;;;;;;12.52;28.88;94621.17;742082;79;26261;-72
2022/03/25 03:24:08;;;;;;;;;;;;;;;;;;;;;
2022/03/25 03:25:29;;;;;;;12.70;10.65;;;;;;;12.50;28.96;94617.29;698889;80;26521;-74
2022/03/25 03:26:37;;;;;;;12.33;10.48;;;;;;;12.49;28.88;94627.05;760399;77;26286;-73
2022/03/25 03:27:43;;;;;;;12.07;10.18;;;;;;;12.48;28.93;94622.07;747598;78;26326;-73
2022/03/25 03:28:52;;;;;;;11.88;10.60;;;;;;;12.47;28.95;94627.08;750825;78;26767;-73
2022/03/25 03:30:01;;;;;;;12.33;10.75;;;;;;;12.47;28.96;94623.13;758756;77;26256;-72
2022/03/25 03:31:21;;;;;;;12.73;11.20;;;;;;;12.46;28.95;94622.36;761225;78;26254;-71
2022/03/25 03:32:27;;;;;;;12.20;10.70;;;;;;;12.45;28.96;94622.13;761226;78;26244;-72
2022/03/25 03:33:36;;;;;;;12.15;10.32;;;;;;;12.46;29.09;94628.94;761178;77;26231;-72
2022/03/25 03:34:40;;;;;;;15.00;11.40;;;;;;;12.45;29.12;94626.08;759197;77;26240;-72
2022/03/25 03:35:45;;;;;;;13.10;10.43;;;;;;;12.44;29.21;94628.45;759745;78;26240;-73
2022/03/25 03:43:37;;;;;;;14.23;10.55;;;;;;;12.37;29.37;94624.15;744048;78;26248;-72
2022/03/25 03:44:42;;;;;;;17.62;11.75;;;;;;;12.37;29.25;94625.46;738220;79;26322;-72
2022/03/25 03:45:47;;;;;;;14.45;11.03;;;;;;;12.35;29.25;94625.75;742546;78;26253;-72
2022/03/25 03:46:53;;;;;;;12.85;11.40;;;;;;;12.34;29.25;94632.62;723642;81;26265;-73
2022/03/25 03:48:01;;;;;;;13.08;10.75;;;;;;;12.33;29.33;94628.44;728468;80;26269;-73
2022/03/25 03:49:06;;;;;;;14.03;11.53;;;;;;;12.32;29.37;94625.02;735225;79;26229;-72
2022/03/25 03:50:14;;;;;;;13.72;11.20;;;;;;;12.30;29.42;94631.10;729513;80;26802;-74
2022/03/25 03:51:23;;;;;;;13.50;10.95;;;;;;;12.31;29.46;94626.64;733217;79;26280;-72
2022/03/25 03:52:28;;;;;;;14.75;11.00;;;;;;;12.30;29.43;94633.73;736336;79;26705;-72
2022/03/25 03:53:39;;;;;;;14.20;11.30;;;;;;;12.30;29.59;94632.42;723955;80;26279;-71
2022/03/25 03:54:47;;;;;;;14.18;11.00;;;;;;;12.30;29.50;94627.70;739219;79;26409;-75
2022/03/25 04:00:10;;;;;;;14.15;11.45;;;;;;;12.25;29.40;94625.16;765145;76;26322;-74
2022/03/25 04:01:14;;;;;;;11.50;9.75;;;;;;;12.23;29.48;94628.11;773424;76;26299;-74
2022/03/25 04:02:19;;;;;;;11.60;9.83;;;;;;;12.25;32.94;94629.91;771902;77;26312;-74
2022/03/25 04:03:25;;;;;;;12.58;10.70;;;;;;;12.31;34.91;94629.27;767079;74;26236;-75
2022/03/25 04:04:29;;;;;;;12.70;11.10;;;;;;;12.37;33.77;94631.50;774019;76;26373;-73
2022/03/25 04:05:33;;;;;;;13.55;10.53;;;;;;;12.43;31.74;94634.81;763069;76;26244;-73
2022/03/25 04:06:38;;;;;;;13.50;10.95;;;;;;;12.34;30.84;94612.34;758424;77;26236;-74
2022/03/25 04:07:47;;;;;;;11.85;10.70;;;;;;;12.47;30.40;94632.34;751708;77;26331;-73
2022/03/25 04:08:56;;;;;;;12.43;10.53;;;;;;;12.46;30.11;94630.80;761628;78;26225;-74
2022/03/25 04:10:01;;;;;;;14.78;11.10;;;;;;;12.48;29.95;94628.66;758034;77;26703;-74
2022/03/25 04:11:05;;;;;;;16.00;12.25;;;;;;;12.47;29.77;94625.77;763084;76;26261;-72
2022/03/25 04:12:10;;;;;;;14.58;11.10;;;;;;;12.46;29.64;94628.17;770731;74;26264;-75
2022/03/25 04:13:15;;;;;;;15.15;10.90;;;;;;;12.45;29.58;94627.40;768803;74;26255;-74
2022/03/25 04:14:20;;;;;;;11.50;10.30;;;;;;;12.47;29.59;94625.77;763030;76;26814;-75
2022/03/25 04:15:24;;;;;;;15.40;11.53;;;;;;;12.47;29.42;94623.93;774731;76;26259;-72
2022/03/25 04:16:49;;;;;;;12.37;11.08;;;;;;;12.46;29.37;94628.94;774762;76;26250;-73
2022/03/25 04:17:54;;;;;;;11.20;10.10;;;;;;;12.45;29.49;94627.91;747337;79;26253;-73
2022/03/25 04:18:58;;;;;;;14.05;12.45;;;;;;;12.45;29.35;94626.59;761416;77;26228;-73
2022/03/25 04:20:03;;;;;;;13.55;11.50;;;;;;;12.44;29.30;94632.41;745904;78;26263;-73
2022/03/25 04:21:08;;;;;;;12.80;11.50;;;;;;;12.43;29.30;94630.31;735039;79;26342;-75
2022/03/25 04:22:12;;;;;;;19.23;12.28;;;;;;;12.43;29.30;94632.17;740073;79;26339;-70
2022/03/25 04:23:17;;;;;;;15.45;12.65;;;;;;;12.42;29.26;94624.03;728413;80;26281;-72
2022/03/25 04:30:39;;;;;;;13.65;11.50;;;;;;;12.39;29.43;94633.30;778157;76;26149;-74
2022/03/25 04:31:44;;;;;;;13.45;11.45;;;;;;;12.37;29.42;94635.45;777251;76;26917;-74
2022/03/25 04:32:48;;;;;;;15.45;12.13;;;;;;;12.36;29.45;94635.19;775875;76;26618;-73
2022/03/25 04:33:54;;;;;;;14.20;11.40;;;;;;;12.38;29.52;94638.30;769057;76;26725;-74
2022/03/25 04:35:00;;;;;;;14.80;11.22;;;;;;;12.37;29.54;94638.08;772431;76;26436;-76
2022/03/25 04:39:18;;;;;;;17.12;11.48;;;;;;;12.36;29.47;94641.00;761201;76;26696;-73
2022/03/25 04:40:30;;;;;;;13.50;10.65;;;;;;;12.36;29.47;94636.50;758508;78;26194;-76
2022/03/25 04:41:39;;;;;;;14.85;11.15;;;;;;;12.37;29.53;94639.39;756807;77;26362;-73
2022/03/25 04:42:44;;;;;;;11.80;10.55;;;;;;;12.39;29.44;94641.73;758619;77;26272;-75
2022/03/25 04:43:48;;;;;;;13.03;11.55;;;;;;;12.46;29.46;94636.84;753914;78;26241;-73
2022/03/25 04:44:55;;;;;;;14.95;11.30;;;;;;;12.57;29.40;94642.66;758975;78;26736;-75
2022/03/25 04:49:13;;;;;;;12.53;10.40;;;;;;;13.19;28.80;94644.70;748928;76;26341;-75
2022/03/25 04:50:18;;;;;;;14.85;10.85;;;;;;;13.41;28.62;94639.44;756640;77;26349;-76
2022/03/25 04:51:23;;;;;;;11.93;10.72;;;;;;;13.59;28.37;94640.87;764415;76;26267;-76
2022/03/25 04:52:30;;;;;;;13.30;10.85;;;;;;;13.75;28.12;94642.03;750473;78;26290;-75
2022/03/25 04:53:35;;;;;;;13.60;11.20;;;;;;;13.94;27.90;94639.14;729286;80;26289;-75
2022/03/25 04:54:39;;;;;;;15.85;11.95;;;;;;;14.12;27.81;94647.14;730349;78;26304;-76
2022/03/25 04:59:06;;;;;;;13.28;10.90;;;;;;;14.72;27.02;94645.72;747899;78;26698;-74
2022/03/25 05:00:11;;;;;;;15.15;12.13;;;;;;;14.90;26.75;94644.66;757458;76;26212;-74
2022/03/25 05:01:18;;;;;;;14.25;11.70;;;;;;;15.02;26.67;94644.81;754543;77;26263;-75
2022/03/25 05:02:25;;;;;;;14.10;11.90;;;;;;;15.17;26.54;94638.82;772633;76;26252;-75
2022/03/25 05:03:31;;;;;;;13.75;12.03;;;;;;;15.28;26.40;94642.67;765404;75;26323;-76
2022/03/25 05:04:35;;;;;;;13.90;12.40;;;;;;;15.40;26.25;94645.45;776052;76;26797;-75
2022/03/25 05:07:57;;;;;;;15.23;11.63;;;;;;;15.63;26.01;94642.08;769848;77;26209;-74
2022/03/25 05:09:02;;;;;;;15.68;12.90;;;;;;;15.85;25.82;94636.89;772273;76;26326;-74
2022/03/25 05:10:13;;;;;;;13.65;12.10;;;;;;;15.92;25.68;94637.96;759920;77;26334;-75
2022/03/25 05:18:49;;;;;;;15.35;11.45;;;;;;;16.62;25.06;94646.30;806131;73;26230;-77
2022/03/25 05:19:55;;;;;;;15.48;10.60;;;;;;;16.99;37.08;94649.20;805945;73;26325;-78
2022/03/25 05:21:01;;;;;;;15.10;12.55;;;;;;;17.47;30.21;94651.03;765899;76;26248;-77
2022/03/25 05:22:07;;;;;;;15.70;12.07;;;;;;;17.59;27.20;94648.41;757382;76;26259;-77
2022/03/25 05:23:12;;;;;;;14.85;11.90;;;;;;;17.68;25.86;94648.34;777694;75;26289;-74
2022/03/25 05:24:17;;;;;;;17.30;13.60;;;;;;;17.78;25.29;94645.80;777993;75;26801;-76
2022/03/25 05:29:15;;;;;;;13.60;12.25;;;;;;;18.06;24.67;94643.87;768448;76;26188;-76
2022/03/25 05:30:24;;;;;;;15.53;12.90;;;;;;;18.19;24.38;94646.22;776550;75;26257;-75
2022/03/25 05:31:28;;;;;;;17.45;13.90;;;;;;;18.28;24.22;94650.64;772666;76;26262;-76
2022/03/25 05:32:33;;;;;;;17.87;13.58;;;;;;;18.37;24.18;94655.27;775355;76;26320;-76
2022/03/25 05:33:38;;;;;;;17.87;13.83;;;;;;;18.44;23.96;94646.20;774603;76;26397;-77
2022/03/25 05:34:44;;;;;;;15.10;12.95;;;;;;;18.51;23.61;94649.09;775649;76;26383;-78
2022/03/25 05:37:27;;;;;;;15.85;12.70;;;;;;;18.66;23.28;94651.60;768157;72;26388;-77
2022/03/25 05:38:32;;;;;;;13.90;12.40;;;;;;;18.79;23.39;94649.72;765710;76;26692;-78
2022/03/25 05:39:37;;;;;;;14.87;12.10;;;;;;;18.86;23.13;94650.50;767994;76;26783;-80
2022/03/25 05:40:51;;;;;;;18.48;13.05;;;;;;;18.92;23.19;94643.84;766693;76;26719;-81
2022/03/25 05:41:55;;;;;;;19.05;13.70;;;;;;;19.01;23.17;94645.79;766111;76;26710;-81
2022/03/25 05:43:04;;;;;;;14.85;12.95;;;;;;;19.10;23.26;94649.09;756938;77;26755;-80
2022/03/25 05:44:09;;;;;;;17.15;13.85;;;;;;;19.18;22.92;94642.06;762972;76;26326;-80
2022/03/25 05:48:02;;;;;;;14.95;12.28;;;;;;;19.42;22.67;94641.19;744987;78;26302;-79
2022/03/25 05:49:06;;;;;;;18.05;13.18;;;;;;;19.48;22.48;94640.39;751964;78;26262;-76
2022/03/25 05:50:12;;;;;;;17.80;13.18;;;;;;;19.55;22.30;94639.27;741708;77;26337;-76
2022/03/25 05:51:22;;;;;;;16.48;12.80;;;;;;;19.64;22.25;94644.42;733212;80;26280;-76
2022/03/25 05:52:26;;;;;;;15.90;13.60;;;;;;;19.72;22.24;94650.17;746596;77;26322;-76
2022/03/25 05:53:30;;;;;;;15.70;12.75;;;;;;;19.79;22.09;94648.47;754058;77;26268;-77
2022/03/25 05:54:34;;;;;;;21.25;13.15;;;;;;;19.86;22.00;94649.20;742389;78;26248;-76
2022/03/25 06:01:49;;;;;;;14.87;12.55;;;;;;;20.26;21.76;94654.92;788647;73;26239;-79
2022/03/25 06:02:55;;;;;;;19.12;13.35;;;;;;;20.37;21.83;94659.92;800418;73;26222;-77
2022/03/25 06:04:01;;;;;;;16.12;13.03;;;;;;;20.46;21.74;94655.77;808400;73;26315;-75
2022/03/25 06:05:08;;;;;;;15.60;12.98;;;;;;;20.53;21.77;94655.91;802757;74;26731;-75
2022/03/25 06:08:07;;;;;;;14.20;12.70;;;;;;;20.70;21.55;94660.13;742943;78;26314;-77
2022/03/25 06:09:15;;;;;;;13.45;12.25;;;;;;;20.83;21.38;94650.68;750288;77;26274;-74
2022/03/25 06:10:21;;;;;;;15.05;13.18;;;;;;;20.92;21.37;94659.23;752544;77;26274;-77
2022/03/25 06:11:27;;;;;;;18.60;13.83;;;;;;;21.01;21.23;94659.83;755857;77;26402;-78
2022/03/25 06:12:32;;;;;;;25.00;14.15;;;;;;;21.10;21.21;94656.94;736985;78;26392;-77
2022/03/25 06:13:39;;;;;;;17.62;13.83;;;;;;;21.18;21.05;94662.06;739655;78;26275;-77
2022/03/25 06:14:44;;;;;;;16.20;13.72;;;;;;;21.27;21.06;94659.20;753270;77;26341;-77
2022/03/25 06:19:55;;;;;;;18.23;14.23;;;;;;;21.63;20.56;94661.22;761608;78;26622;-77
2022/03/25 06:20:59;;;;;;;16.05;13.40;;;;;;;21.82;20.36;94664.44;763989;77;26259;-76
2022/03/25 06:22:03;;;;;;;13.80;12.40;;;;;;;21.91;20.24;94664.20;753890;78;26243;-74
2022/03/25 06:23:08;;;;;;;15.48;13.85;;;;;;;22.00;20.08;94665.52;748607;78;26291;-77
2022/03/25 06:24:12;;;;;;;17.30;15.35;;;;;;;22.11;19.88;94668.92;743853;77;26343;-76
2022/03/25 06:28:21;;;;;;;15.08;13.55;;;;;;;22.37;19.59;94670.33;785077;75;26177;-76
2022/03/25 06:29:25;;;;;;;17.75;13.25;;;;;;;22.48;19.60;94669.14;780769;74;26252;-77
2022/03/25 06:30:34;;;;;;;15.72;13.38;;;;;;;22.57;19.54;94664.90;771299;76;26393;-75
2022/03/25 06:31:38;;;;;;;15.93;14.20;;;;;;;22.65;19.47;94670.55;768230;76;26254;-75
2022/03/25 06:32:44;;;;;;;15.45;13.85;;;;;;;22.72;19.23;94670.64;773236;76;26978;-77
2022/03/25 06:33:48;;;;;;;16.05;13.45;;;;;;;22.79;19.34;94668.08;763890;76;26245;-75
2022/03/25 06:34:56;;;;;;;19.03;14.47;;;;;;;22.86;19.14;94668.73;775798;76;26229;-76
2022/03/25 06:38:36;;;;;;;17.95;14.85;;;;;;;23.03;19.08;94676.05;755960;77;26738;-76
2022/03/25 06:39:44;;;;;;;15.53;13.67;;;;;;;23.16;19.08;94671.45;751118;77;26285;-75
2022/03/25 06:41:10;;;;;;;17.77;13.57;;;;;;;23.22;19.06;94670.57;752802;77;26541;-78
2022/03/25 06:42:40;;;;;;;17.90;14.40;;;;;;;23.32;18.94;94676.62;754848;77;26601;-76